Time;durP1;ratioP1;P1;durP2;ratioP2;P2;SDS_P1;SDS_P2;PMS_P1;PMS_P2;Temp;Humidity;BMP_temperature;BMP_pressure;BME280_temperature;BME280_humidity;BME280_pressure;Samples;Min_cycle;Max_cycle;Signal;HPM_P1;HPM_P2
2022/10/27 00:02:01;;;;;;;1.20;1.00;;;;;;;12.72;96.51;102067.00;5115174;28;20106;-82
2022/10/27 00:04:26;;;;;;;2.67;1.43;;;;;;;12.70;96.78;102067.00;5116054;28;20460;-82
2022/10/27 00:06:52;;;;;;;0.80;0.80;;;;;;;12.65;96.79;102066.16;5115700;28;20030;-82
2022/10/27 00:09:17;;;;;;;1.00;0.90;;;;;;;12.61;97.09;102067.06;5115293;28;20402;-83
2022/10/27 00:11:42;;;;;;;1.50;0.70;;;;;;;12.57;96.93;102070.53;5116188;28;20036;-82
2022/10/27 00:14:07;;;;;;;0.90;0.90;;;;;;;12.54;97.33;102071.41;5115817;28;20104;-82
2022/10/27 00:16:33;;;;;;;0.90;0.90;;;;;;;12.52;97.35;102076.59;5115275;28;20036;-82
2022/10/27 00:18:58;;;;;;;1.13;1.03;;;;;;;12.52;96.86;102068.81;5115470;28;20036;-82
2022/10/27 00:21:23;;;;;;;1.03;1.03;;;;;;;12.53;96.92;102067.09;5114976;28;20031;-82
2022/10/27 00:23:50;;;;;;;1.30;1.20;;;;;;;12.53;96.92;102072.28;5115000;28;20027;-82
2022/10/27 00:26:16;;;;;;;1.33;1.00;;;;;;;12.52;96.96;102076.59;5115672;28;20067;-82
2022/10/27 00:28:42;;;;;;;1.50;1.40;;;;;;;12.51;96.49;102072.28;5115594;28;20114;-82
2022/10/27 00:31:20;;;;;;;1.10;1.10;;;;;;;12.49;96.69;102070.56;5114634;28;20042;-82
2022/10/27 00:33:47;;;;;;;1.00;1.00;;;;;;;12.46;96.50;102074.03;5115541;28;20036;-82
2022/10/27 00:36:15;;;;;;;1.30;1.20;;;;;;;12.43;96.72;102076.66;5114240;28;20036;-82
2022/10/27 00:38:40;;;;;;;0.70;0.70;;;;;;;12.39;96.84;102082.72;5115447;28;20452;-82
2022/10/27 00:41:18;;;;;;;1.00;1.00;;;;;;;12.34;97.67;102072.31;5115181;28;20031;-82
2022/10/27 00:43:43;;;;;;;1.20;1.10;;;;;;;12.31;97.12;102077.56;5114657;28;20525;-82
2022/10/27 00:46:40;;;;;;;0.93;0.93;;;;;;;12.28;97.15;102081.88;5114624;28;20031;-82
2022/10/27 00:49:12;;;;;;;0.80;0.80;;;;;;;12.26;97.33;102084.50;5114354;28;20437;-82
2022/10/27 00:51:41;;;;;;;0.77;0.77;;;;;;;12.23;96.95;102084.50;5114501;28;20107;-82
2022/10/27 00:54:07;;;;;;;0.80;0.80;;;;;;;12.22;97.31;102087.13;5114454;28;20479;-82
2022/10/27 00:56:33;;;;;;;0.60;0.60;;;;;;;12.19;97.31;102090.59;5114873;28;20035;-82
2022/10/27 00:58:59;;;;;;;1.77;0.73;;;;;;;12.17;97.72;102088.00;5113890;28;20019;-82
2022/10/27 01:01:26;;;;;;;1.02;1.02;;;;;;;12.16;97.82;102083.66;5114763;28;20024;-82
2022/10/27 01:03:51;;;;;;;0.82;0.80;;;;;;;12.16;97.74;102086.25;5114820;28;20046;-82
2022/10/27 01:06:16;;;;;;;0.90;0.90;;;;;;;12.16;97.91;102086.25;5114300;28;20016;-82
2022/10/27 01:08:42;;;;;;;1.17;1.13;;;;;;;12.17;97.58;102088.00;5115088;28;20520;-83
2022/10/27 01:11:08;;;;;;;0.57;0.57;;;;;;;12.16;97.74;102088.84;5114281;28;20019;-82
2022/10/27 01:13:33;;;;;;;1.20;1.10;;;;;;;12.17;97.92;102085.38;5114268;28;20486;-82
2022/10/27 01:16:20;;;;;;;1.97;1.00;;;;;;;12.18;97.44;102089.72;5114314;28;20527;-82
2022/10/27 01:19:37;;;;;;;0.88;0.80;;;;;;;12.18;97.87;102094.94;5114030;28;20098;-82
2022/10/27 01:22:13;;;;;;;0.85;0.85;;;;;;;12.17;97.96;102093.19;5114155;28;20153;-82
2022/10/27 01:24:59;;;;;;;0.80;0.80;;;;;;;12.15;97.82;102097.56;5114834;28;20016;-83
2022/10/27 01:27:32;;;;;;;0.90;0.90;;;;;;;12.15;97.76;102097.56;5113700;28;20059;-83
2022/10/27 01:30:10;;;;;;;0.85;0.85;;;;;;;12.15;98.02;102094.97;5114076;28;20024;-83
2022/10/27 01:32:46;;;;;;;0.98;0.98;;;;;;;12.14;98.46;102101.03;5112631;28;20826;-82
2022/10/27 01:35:12;;;;;;;0.77;0.77;;;;;;;12.15;98.01;102097.56;5114275;28;20024;-83
2022/10/27 01:37:45;;;;;;;1.00;0.98;;;;;;;12.16;98.41;102096.66;5114274;28;20034;-82
2022/10/27 01:40:18;;;;;;;0.95;0.93;;;;;;;12.18;98.55;102097.53;5113290;28;20106;-83
2022/10/27 01:42:50;;;;;;;0.70;0.70;;;;;;;12.19;98.29;102111.44;5114329;28;20040;-83
2022/10/27 01:45:23;;;;;;;0.90;0.90;;;;;;;12.19;98.82;102103.63;5114339;28;20030;-83
2022/10/27 01:47:49;;;;;;;0.80;0.80;;;;;;;12.18;99.28;102102.72;5113494;28;20022;-83
2022/10/27 01:50:23;;;;;;;1.23;0.97;;;;;;;12.20;99.41;102098.41;5114263;28;20020;-83
2022/10/27 01:52:49;;;;;;;0.95;0.95;;;;;;;12.20;99.22;102106.22;5114032;28;20027;-83
2022/10/27 01:55:27;;;;;;;0.90;0.90;;;;;;;12.19;99.30;102096.66;5113043;28;20511;-83
2022/10/27 01:58:01;;;;;;;1.95;1.00;;;;;;;12.19;99.42;102101.88;5113696;28;20016;-83
2022/10/27 02:00:30;;;;;;;0.90;0.90;;;;;;;12.18;99.58;102100.13;5113056;28;20064;-82
2022/10/27 02:03:08;;;;;;;1.10;1.00;;;;;;;12.18;98.87;102091.47;5113841;28;20031;-83
2022/10/27 02:05:51;;;;;;;2.17;1.10;;;;;;;12.19;99.10;102093.22;5113538;28;20024;-83
2022/10/27 02:08:43;;;;;;;0.90;0.90;;;;;;;12.17;99.42;102088.00;5113444;28;20016;-82
2022/10/27 02:11:10;;;;;;;1.10;1.02;;;;;;;12.15;98.85;102087.16;5104989;28;20027;-83
2022/10/27 02:13:43;;;;;;;0.82;0.82;;;;;;;12.13;99.01;102086.28;5113216;28;20035;-83
2022/10/27 02:16:16;;;;;;;1.35;0.95;;;;;;;12.13;99.15;102086.28;5112626;28;20023;-83
2022/10/27 02:18:47;;;;;;;1.20;1.10;;;;;;;12.13;99.51;102082.78;5113565;28;20024;-83
2022/10/27 02:21:15;;;;;;;1.60;1.40;;;;;;;12.11;100.00;102084.53;5113316;28;20028;-83
2022/10/27 02:23:41;;;;;;;1.33;1.23;;;;;;;12.11;100.00;102085.41;5112748;28;20425;-82
2022/10/27 02:26:27;;;;;;;1.27;1.17;;;;;;;12.12;100.00;102083.66;5113072;28;20055;-83
2022/10/27 02:29:28;;;;;;;1.38;1.27;;;;;;;12.11;99.92;102076.72;5112590;28;20024;-83
2022/10/27 02:31:58;;;;;;;1.27;1.17;;;;;;;12.09;99.68;102070.69;5100951;28;20038;-82
2022/10/27 02:34:24;;;;;;;0.95;0.95;;;;;;;12.09;99.41;102079.34;5113002;28;20046;-83
2022/10/27 02:36:49;;;;;;;1.13;1.10;;;;;;;12.08;99.53;102076.75;5112327;28;20020;-83
2022/10/27 02:39:15;;;;;;;1.03;1.00;;;;;;;12.06;99.42;102068.94;5113575;28;20023;-83
2022/10/27 02:41:40;;;;;;;1.00;1.00;;;;;;;12.07;99.77;102077.63;5113151;28;20061;-83
2022/10/27 02:44:05;;;;;;;1.00;1.00;;;;;;;12.06;99.92;102074.13;5112233;28;20020;-83
2022/10/27 02:46:30;;;;;;;0.90;0.90;;;;;;;12.07;99.73;102075.00;5113386;28;20072;-83
2022/10/27 02:48:56;;;;;;;1.93;1.20;;;;;;;12.06;99.40;102071.53;5112954;28;20028;-83
2022/10/27 02:51:21;;;;;;;1.13;1.10;;;;;;;12.07;99.88;102069.81;5112349;28;20034;-83
2022/10/27 02:53:46;;;;;;;1.10;1.07;;;;;;;12.07;99.64;102062.84;5113254;28;20028;-82
2022/10/27 02:56:12;;;;;;;1.13;1.03;;;;;;;12.07;99.69;102069.81;5112481;28;20438;-82
2022/10/27 02:58:37;;;;;;;0.93;0.93;;;;;;;12.03;99.93;102064.59;5112609;28;20110;-83
2022/10/27 03:01:02;;;;;;;0.80;0.80;;;;;;;12.04;99.66;102060.28;5112535;28;20039;-82
2022/10/27 03:03:27;;;;;;;0.80;0.80;;;;;;;12.00;99.66;102061.16;5113242;28;20016;-83
2022/10/27 03:05:53;;;;;;;1.03;0.93;;;;;;;11.99;99.42;102062.00;5111874;28;20023;-83
2022/10/27 03:08:18;;;;;;;0.90;0.90;;;;;;;11.98;99.28;102062.88;5113233;28;20371;-83
2022/10/27 03:10:43;;;;;;;1.10;1.00;;;;;;;11.96;100.00;102052.44;5112257;28;20463;-82
2022/10/27 03:13:09;;;;;;;1.33;1.23;;;;;;;11.93;100.00;102054.19;5112785;28;20042;-83
2022/10/27 03:15:35;;;;;;;1.27;1.17;;;;;;;11.89;100.00;102037.69;5113207;28;20076;-83
2022/10/27 03:18:00;;;;;;;1.43;1.33;;;;;;;11.87;99.81;102040.31;5111863;28;20468;-83
2022/10/27 03:20:25;;;;;;;1.67;1.30;;;;;;;11.86;99.54;102043.78;5112811;28;20429;-83
2022/10/27 03:22:51;;;;;;;2.00;1.40;;;;;;;11.86;99.57;102043.78;5112563;28;20043;-83
2022/10/27 03:25:16;;;;;;;1.43;1.23;;;;;;;11.86;100.00;102035.13;5111970;28;20119;-83
2022/10/27 03:27:43;;;;;;;1.03;1.03;;;;;;;11.85;100.00;102036.00;5112902;28;20491;-83
2022/10/27 03:30:11;;;;;;;1.38;1.30;;;;;;;11.81;100.00;102034.25;5112488;28;20379;-83
2022/10/27 03:32:37;;;;;;;1.83;1.55;;;;;;;11.80;100.00;102036.00;5112124;28;20030;-83
2022/10/27 03:35:02;;;;;;;1.90;1.70;;;;;;;11.82;100.00;102036.84;5112388;28;20122;-82
2022/10/27 03:37:27;;;;;;;2.17;1.73;;;;;;;11.84;99.77;102031.66;5112997;28;20016;-83
2022/10/27 03:39:53;;;;;;;1.50;1.40;;;;;;;11.85;100.00;102030.78;5112047;28;20035;-83
2022/10/27 03:42:18;;;;;;;1.50;1.40;;;;;;;11.86;100.00;102032.53;5112790;28;20515;-83
2022/10/27 03:44:43;;;;;;;1.50;1.37;;;;;;;11.87;100.00;102031.66;5112403;28;20020;-83
2022/10/27 03:47:09;;;;;;;2.47;1.70;;;;;;;11.87;100.00;102029.91;5111739;28;20442;-83
2022/10/27 03:49:34;;;;;;;1.60;1.50;;;;;;;11.86;100.00;102022.13;5112758;28;20110;-83
2022/10/27 03:52:00;;;;;;;1.70;1.60;;;;;;;11.84;100.00;102023.84;5112150;28;20038;-83
2022/10/27 03:54:28;;;;;;;2.17;1.97;;;;;;;11.86;100.00;102027.31;5112109;28;20051;-83
2022/10/27 03:56:54;;;;;;;2.00;1.80;;;;;;;11.86;100.00;102022.13;5115683;28;20035;-83
2022/10/27 03:59:19;;;;;;;1.67;1.57;;;;;;;11.85;100.00;102017.78;5116648;28;20020;-83
2022/10/27 04:01:44;;;;;;;2.00;1.70;;;;;;;11.86;100.00;102019.53;5115129;28;20035;-83
2022/10/27 04:04:11;;;;;;;1.53;1.43;;;;;;;11.85;100.00;102015.19;5116059;28;20033;-83
2022/10/27 04:06:36;;;;;;;1.20;1.10;;;;;;;11.84;100.00;102024.72;5116093;28;20023;-83
2022/10/27 04:09:01;;;;;;;1.60;1.43;;;;;;;11.82;100.00;102023.84;5115248;28;20413;-83
2022/10/27 04:11:26;;;;;;;1.13;1.07;;;;;;;11.82;100.00;102020.38;5115652;28;20031;-83
2022/10/27 04:13:52;;;;;;;1.23;1.13;;;;;;;11.80;100.00;102027.31;5115845;28;20024;-83
2022/10/27 04:16:17;;;;;;;0.97;0.97;;;;;;;11.77;99.88;102035.13;5115048;28;20145;-83
2022/10/27 04:18:42;;;;;;;0.80;0.80;;;;;;;11.74;100.00;102036.88;5115746;28;20383;-83
2022/10/27 04:21:08;;;;;;;1.00;1.00;;;;;;;11.74;100.00;102038.59;5113960;28;20110;-82
2022/10/27 04:23:33;;;;;;;1.50;1.37;;;;;;;11.73;100.00;102042.06;5115613;28;20050;-82
2022/10/27 04:25:58;;;;;;;1.53;1.10;;;;;;;11.68;100.00;102042.06;5115077;28;20088;-83
2022/10/27 04:28:24;;;;;;;1.53;1.10;;;;;;;11.67;100.00;102052.47;5114775;28;20024;-83
2022/10/27 04:30:49;;;;;;;1.63;1.50;;;;;;;11.64;100.00;102049.88;5115592;28;20024;-83
2022/10/27 04:33:15;;;;;;;1.20;1.10;;;;;;;11.58;100.00;102041.22;5115811;28;20039;-83
2022/10/27 04:35:41;;;;;;;1.13;1.13;;;;;;;11.55;99.95;102043.81;5114669;28;20023;-83
2022/10/27 04:38:06;;;;;;;1.47;1.37;;;;;;;11.52;99.73;102038.59;5115218;28;20144;-83
2022/10/27 04:40:31;;;;;;;1.37;1.27;;;;;;;11.50;99.65;102042.09;5115681;28;20106;-83
2022/10/27 04:42:56;;;;;;;1.53;1.43;;;;;;;11.49;99.81;102041.19;5114481;28;20024;-82
2022/10/27 04:45:22;;;;;;;1.50;1.40;;;;;;;11.47;99.70;102042.06;5115336;28;20055;-83
2022/10/27 04:47:47;;;;;;;1.50;1.40;;;;;;;11.44;99.66;102040.34;5114925;27;20038;-82
2022/10/27 04:50:14;;;;;;;1.47;1.37;;;;;;;11.43;99.67;102055.06;5114353;28;20015;-83
2022/10/27 04:52:39;;;;;;;1.45;1.35;;;;;;;11.42;99.80;102057.66;5115395;28;20032;-83
2022/10/27 04:55:05;;;;;;;1.10;1.10;;;;;;;11.40;99.52;102055.09;5114824;28;20027;-83
2022/10/27 04:57:30;;;;;;;1.23;1.23;;;;;;;11.38;99.97;102053.31;5114559;28;20024;-83
2022/10/27 04:59:56;;;;;;;1.80;1.70;;;;;;;11.35;100.00;102050.75;5114936;28;20479;-83
2022/10/27 05:02:21;;;;;;;1.60;1.50;;;;;;;11.34;99.99;102043.81;5115005;28;20072;-82
2022/10/27 05:04:46;;;;;;;1.67;1.57;;;;;;;11.36;99.95;102049.88;5114056;28;20031;-83
2022/10/27 05:07:11;;;;;;;1.83;1.63;;;;;;;11.37;100.00;102049.03;5114210;28;20073;-83
2022/10/27 05:09:37;;;;;;;1.93;1.77;;;;;;;11.38;100.00;102046.41;5114619;28;20016;-83
2022/10/27 05:12:02;;;;;;;1.80;1.70;;;;;;;11.41;100.00;102051.63;5113827;28;20371;-82
2022/10/27 05:14:27;;;;;;;1.50;1.40;;;;;;;11.44;100.00;102050.75;5114342;28;20032;-83
2022/10/27 05:16:53;;;;;;;1.47;1.37;;;;;;;11.43;100.00;102049.00;5114280;28;20035;-82
2022/10/27 05:19:18;;;;;;;1.67;1.57;;;;;;;11.43;100.00;102051.59;5113949;28;20028;-82
2022/10/27 05:21:43;;;;;;;1.53;1.43;;;;;;;11.42;100.00;102047.28;5115014;28;20016;-82
2022/10/27 05:24:09;;;;;;;2.17;1.80;;;;;;;11.43;100.00;102049.88;5114427;28;20035;-83
2022/10/27 05:26:34;;;;;;;2.43;1.67;;;;;;;11.46;100.00;102050.72;5113848;28;20059;-82
2022/10/27 05:28:59;;;;;;;1.37;1.30;;;;;;;11.49;100.00;102048.16;5114085;28;20490;-83
2022/10/27 05:31:24;;;;;;;1.73;1.63;;;;;;;11.51;100.00;102047.28;5113691;28;20015;-82
2022/10/27 05:33:50;;;;;;;1.47;1.30;;;;;;;11.51;100.00;102036.03;5113443;28;20016;-82
2022/10/27 05:36:15;;;;;;;1.17;1.17;;;;;;;11.53;100.00;102044.69;5114315;28;20115;-83
2022/10/27 05:38:41;;;;;;;1.27;1.20;;;;;;;11.53;100.00;102052.50;5113786;28;20024;-82
2022/10/27 05:41:06;;;;;;;1.50;1.40;;;;;;;11.54;100.00;102049.88;5113961;28;20023;-82
2022/10/27 05:43:32;;;;;;;1.47;1.37;;;;;;;11.56;100.00;102049.88;5114420;28;20552;-82
2022/10/27 05:45:57;;;;;;;0.90;0.90;;;;;;;11.56;100.00;102040.34;5113027;28;20375;-83
2022/10/27 05:48:22;;;;;;;1.50;1.40;;;;;;;11.56;100.00;102035.16;5114463;28;20106;-83
2022/10/27 05:50:52;;;;;;;1.97;1.80;;;;;;;11.56;100.00;102045.56;5113641;28;20105;-83
2022/10/27 05:53:17;;;;;;;1.60;1.50;;;;;;;11.55;100.00;102036.00;5113154;28;20024;-82
2022/10/27 05:55:42;;;;;;;1.70;1.60;;;;;;;11.55;100.00;102029.94;5114305;28;20031;-82
2022/10/27 05:58:08;;;;;;;1.67;1.57;;;;;;;11.56;100.00;102029.06;5113893;28;20051;-84
2022/10/27 06:00:36;;;;;;;3.03;2.30;;;;;;;11.62;100.00;102036.88;5113011;28;20019;-83
2022/10/27 06:03:03;;;;;;;2.08;1.88;;;;;;;11.63;100.00;102032.53;5113768;28;20384;-84
2022/10/27 06:05:30;;;;;;;2.20;2.00;;;;;;;11.65;100.00;102033.41;5107136;28;20023;-83
2022/10/27 06:07:56;;;;;;;;;;;;;;;11.65;100.00;102036.84;5100639;28;20387;-83
2022/10/27 06:10:22;;;;;;;2.20;2.00;;;;;;;11.66;100.00;102038.59;5113909;28;19911;-84
2022/10/27 06:12:47;;;;;;;2.87;1.97;;;;;;;11.68;100.00;102036.00;5113456;28;20023;-82
2022/10/27 06:15:12;;;;;;;3.83;2.20;;;;;;;11.71;100.00;102033.38;5099364;28;20530;-82
2022/10/27 06:17:38;;;;;;;2.77;2.00;;;;;;;11.72;100.00;102038.59;5092848;28;20017;-81
2022/10/27 06:20:04;;;;;;;1.97;1.70;;;;;;;11.72;100.00;102023.00;5112631;28;20451;-79
2022/10/27 06:22:29;;;;;;;1.70;1.60;;;;;;;11.74;100.00;102026.47;5112663;28;20098;-80
2022/10/27 06:24:54;;;;;;;1.90;1.70;;;;;;;11.75;100.00;102016.91;5113328;28;20038;-80
2022/10/27 06:27:20;;;;;;;2.37;1.80;;;;;;;11.78;100.00;102019.53;5113302;28;20126;-79
2022/10/27 06:29:45;;;;;;;2.00;1.80;;;;;;;11.80;100.00;102015.19;5112800;28;20066;-79
2022/10/27 06:32:11;;;;;;;2.73;2.07;;;;;;;11.82;100.00;102023.84;5113041;28;20392;-79
2022/10/27 06:34:36;;;;;;;1.80;1.70;;;;;;;11.84;100.00;102027.31;5113340;28;20020;-79
2022/10/27 06:37:04;;;;;;;1.83;1.73;;;;;;;11.84;100.00;102014.31;5112717;28;20027;-79
2022/10/27 06:39:30;;;;;;;1.80;1.70;;;;;;;11.85;100.00;102017.78;5113560;28;20103;-83
2022/10/27 06:41:56;;;;;;;3.23;2.10;;;;;;;11.86;100.00;102012.56;5112562;28;20428;-83
2022/10/27 06:44:22;;;;;;;2.20;1.97;;;;;;;11.86;100.00;102020.38;5113139;28;20023;-81
2022/10/27 06:46:47;;;;;;;1.77;1.67;;;;;;;11.87;100.00;102016.91;5112957;28;20026;-82
2022/10/27 06:49:12;;;;;;;2.50;1.60;;;;;;;11.87;100.00;102019.50;5112508;28;20371;-81
2022/10/27 06:51:37;;;;;;;2.10;1.90;;;;;;;11.87;100.00;102016.06;5113176;28;20069;-80
2022/10/27 06:54:03;;;;;;;1.70;1.60;;;;;;;11.87;100.00;102014.31;5113103;28;20480;-80
2022/10/27 06:56:28;;;;;;;1.70;1.60;;;;;;;11.89;100.00;102012.56;5112385;28;20084;-80
2022/10/27 06:58:53;;;;;;;1.50;1.40;;;;;;;11.89;100.00;102006.47;5112232;28;20433;-79
2022/10/27 07:01:18;;;;;;;1.60;1.50;;;;;;;11.90;100.00;102005.63;5113255;28;20042;-80
2022/10/27 07:03:44;;;;;;;1.50;1.40;;;;;;;11.92;100.00;102000.44;5112449;28;20031;-79
2022/10/27 07:06:09;;;;;;;1.90;1.70;;;;;;;11.94;100.00;102002.16;5112904;28;20027;-80
2022/10/27 07:08:34;;;;;;;1.90;1.70;;;;;;;11.96;100.00;101997.81;5112566;28;20024;-79
2022/10/27 07:10:59;;;;;;;1.80;1.70;;;;;;;11.99;100.00;102004.78;5111681;28;20031;-80
2022/10/27 07:13:25;;;;;;;2.10;1.90;;;;;;;12.00;100.00;102006.50;5112345;28;20388;-82
2022/10/27 07:15:50;;;;;;;1.80;1.70;;;;;;;12.02;100.00;102010.81;5112648;28;20019;-82
2022/10/27 07:18:15;;;;;;;2.13;1.70;;;;;;;12.04;100.00;102013.44;5112486;28;20038;-83
2022/10/27 07:20:44;;;;;;;3.17;2.30;;;;;;;12.08;100.00;102014.31;5112128;28;20035;-82
2022/10/27 07:23:10;;;;;;;2.53;2.13;;;;;;;12.09;100.00;102013.44;5111766;28;20080;-82
2022/10/27 07:25:36;;;;;;;2.40;2.17;;;;;;;12.11;100.00;102022.97;5112080;28;20032;-82
2022/10/27 07:28:03;;;;;;;2.47;1.90;;;;;;;12.13;100.00;102018.63;5112139;28;20440;-82
2022/10/27 07:30:31;;;;;;;1.83;1.73;;;;;;;12.16;100.00;102015.13;5114037;28;20495;-82
2022/10/27 07:32:57;;;;;;;2.00;1.73;;;;;;;12.18;100.00;102005.59;5115675;28;20038;-82
2022/10/27 07:35:22;;;;;;;1.70;1.60;;;;;;;12.20;100.00;102004.72;5116613;28;20027;-82
2022/10/27 07:37:48;;;;;;;1.87;1.60;;;;;;;12.23;100.00;102001.22;5116617;28;20053;-83
2022/10/27 07:40:15;;;;;;;2.03;1.80;;;;;;;12.30;99.90;102002.94;5115126;28;20027;-82
2022/10/27 07:42:49;;;;;;;2.30;2.10;;;;;;;12.35;99.87;102008.97;5116369;28;20027;-83
2022/10/27 07:45:16;;;;;;;3.30;2.10;;;;;;;12.41;100.00;102008.09;5115180;28;20028;-83
2022/10/27 07:47:46;;;;;;;2.70;2.00;;;;;;;12.46;99.94;102008.94;5116384;28;20114;-83
2022/10/27 07:50:11;;;;;;;1.90;1.80;;;;;;;12.52;100.00;102006.31;5115874;28;20115;-83
2022/10/27 07:52:41;;;;;;;4.23;2.83;;;;;;;12.60;100.00;102008.88;5115495;28;20115;-83
2022/10/27 07:55:07;;;;;;;5.53;3.10;;;;;;;12.72;99.62;102004.47;5115589;28;20024;-83
2022/10/27 07:57:32;;;;;;;4.07;2.90;;;;;;;12.79;100.00;102025.28;5116453;28;20060;-83
2022/10/27 07:59:58;;;;;;;5.27;3.27;;;;;;;12.90;98.88;102012.16;5114739;28;20031;-83
2022/10/27 08:02:23;;;;;;;3.80;2.70;;;;;;;13.01;99.05;102019.94;5116227;28;20088;-83
2022/10/27 08:04:48;;;;;;;5.27;2.83;;;;;;;13.07;99.26;102019.88;5115718;28;20032;-84
2022/10/27 08:07:13;;;;;;;5.43;2.40;;;;;;;13.16;98.89;102020.72;5114953;28;20035;-83
2022/10/27 08:09:40;;;;;;;4.13;2.70;;;;;;;13.20;98.47;102002.44;5115560;28;20483;-83
2022/10/27 08:12:06;;;;;;;3.83;2.25;;;;;;;13.29;98.39;102004.06;5115479;28;20032;-83
2022/10/27 08:14:31;;;;;;;2.77;2.17;;;;;;;13.35;97.61;102000.56;5115246;28;20035;-82
2022/10/27 08:16:56;;;;;;;2.53;2.17;;;;;;;13.39;96.66;102005.78;5103842;28;20281;-81
2022/10/27 08:19:22;;;;;;;4.47;2.60;;;;;;;13.48;95.92;102001.38;5113764;28;20068;-82
2022/10/27 08:21:47;;;;;;;4.53;2.60;;;;;;;13.54;96.53;102007.41;5105528;28;20030;-82
2022/10/27 08:24:12;;;;;;;3.47;2.23;;;;;;;13.60;96.28;101998.66;5110576;28;20028;-82
2022/10/27 08:26:38;;;;;;;3.23;2.40;;;;;;;13.66;95.15;101993.34;5114616;28;20131;-82
2022/10/27 08:29:03;;;;;;;3.70;2.40;;;;;;;13.72;95.33;101990.69;5105041;28;20107;-81
2022/10/27 08:31:28;;;;;;;3.40;2.40;;;;;;;13.81;94.51;102004.53;5104555;28;20043;-81
2022/10/27 08:33:54;;;;;;;4.50;2.73;;;;;;;13.88;94.89;101996.63;5114579;28;20011;-82
2022/10/27 08:36:19;;;;;;;4.37;2.50;;;;;;;13.97;94.80;102000.00;5114613;28;20019;-81
2022/10/27 08:38:44;;;;;;;2.27;2.00;;;;;;;14.09;94.92;102005.09;5115400;28;20035;-82
2022/10/27 08:41:25;;;;;;;3.00;2.40;;;;;;;14.20;94.25;102002.34;5114577;28;20570;-82
2022/10/27 08:44:07;;;;;;;3.28;2.30;;;;;;;14.38;94.09;102005.63;5114934;28;20051;-82
2022/10/27 08:46:42;;;;;;;3.97;2.50;;;;;;;14.54;93.13;101982.78;5115184;28;20080;-82
2022/10/27 08:49:40;;;;;;;4.22;2.60;;;;;;;14.73;91.09;101988.66;5113970;28;20480;-82
2022/10/27 08:52:20;;;;;;;4.43;2.45;;;;;;;14.88;91.33;101991.03;5079854;28;20047;-82
2022/10/27 08:54:51;;;;;;;5.18;2.50;;;;;;;15.01;92.03;101988.22;5107285;28;20036;-81
2022/10/27 08:57:28;;;;;;;4.80;2.75;;;;;;;15.11;88.54;101976.72;5114353;28;20109;-81
2022/10/27 08:59:55;;;;;;;4.95;2.80;;;;;;;15.20;89.76;101980.94;5114176;28;20118;-81
2022/10/27 09:02:38;;;;;;;;;;;;;;;15.25;89.96;101982.59;5115373;28;20020;-82
2022/10/27 09:05:54;;;;;;;4.13;2.50;;;;;;;15.32;88.89;101979.88;5114885;28;20002;-81
2022/10/27 09:08:31;;;;;;;2.97;2.20;;;;;;;15.41;89.47;101967.50;5088457;28;20035;-81
2022/10/27 09:11:19;;;;;;;4.07;2.20;;;;;;;15.53;88.37;101960.34;5112478;28;20024;-82
2022/10/27 09:13:58;;;;;;;3.05;2.35;;;;;;;15.62;88.28;101948.84;5092896;28;20036;-81
2022/10/27 09:16:36;;;;;;;2.78;2.10;;;;;;;15.68;88.07;101949.59;5094544;28;20047;-82
2022/10/27 09:19:05;;;;;;;3.58;2.28;;;;;;;15.75;88.17;101959.03;5092590;28;20020;-82
2022/10/27 09:21:34;;;;;;;2.22;2.00;;;;;;;15.83;88.57;101953.66;5113576;28;20027;-82
2022/10/27 09:24:10;;;;;;;2.40;1.88;;;;;;;15.92;86.21;101949.16;5113825;28;20050;-82
2022/10/27 09:26:35;;;;;;;2.83;2.30;;;;;;;16.02;84.38;101951.56;5114453;28;20200;-83
2022/10/27 09:29:22;;;;;;;3.07;2.00;;;;;;;16.07;85.58;101956.72;5114394;28;20511;-82
2022/10/27 09:32:11;;;;;;;2.10;1.90;;;;;;;16.17;85.36;101950.38;5113844;28;20427;-82
2022/10/27 09:34:45;;;;;;;2.00;1.70;;;;;;;16.27;84.57;101948.41;5114692;28;20027;-83
2022/10/27 09:37:15;;;;;;;3.03;1.75;;;;;;;16.35;83.75;101937.78;5114213;28;20365;-82
2022/10/27 09:39:45;;;;;;;2.00;1.73;;;;;;;16.43;82.86;101932.38;5113478;28;20035;-82
2022/10/27 09:42:10;;;;;;;2.13;1.70;;;;;;;16.54;84.94;101937.38;5113881;28;20473;-82
2022/10/27 09:44:36;;;;;;;2.37;1.93;;;;;;;16.58;83.68;101944.25;5113692;28;20114;-82
2022/10/27 09:47:01;;;;;;;2.27;1.97;;;;;;;16.67;83.94;101933.56;5113537;28;20031;-83
2022/10/27 09:49:33;;;;;;;2.87;1.87;;;;;;;16.74;82.52;101932.53;5114294;28;20019;-83
2022/10/27 09:52:14;;;;;;;2.35;1.70;;;;;;;16.83;82.90;101919.19;5108325;28;20019;-83
2022/10/27 09:54:48;;;;;;;2.15;1.67;;;;;;;16.94;80.65;101923.34;5104263;28;20027;-83
2022/10/27 09:57:18;;;;;;;2.78;1.90;;;;;;;17.08;81.20;101915.13;5102100;28;20031;-83
2022/10/27 10:00:15;;;;;;;2.78;1.92;;;;;;;17.25;81.08;101917.31;5103904;28;20036;-83
2022/10/27 10:03:01;;;;;;;2.15;1.95;;;;;;;17.40;79.01;101932.66;5082189;28;20066;-82
2022/10/27 10:05:33;;;;;;;5.03;1.90;;;;;;;17.57;79.58;101924.31;5104193;28;20012;-83
2022/10/27 10:08:12;;;;;;;3.55;2.10;;;;;;;17.70;78.96;101932.72;5110256;28;20276;-82
2022/10/27 10:10:39;;;;;;;3.75;1.88;;;;;;;17.83;77.99;101928.00;5101451;28;20024;-82
2022/10/27 10:13:05;;;;;;;2.83;1.90;;;;;;;17.93;78.08;101930.34;5097818;28;20043;-82
2022/10/27 10:16:05;;;;;;;3.08;1.67;;;;;;;18.01;75.33;101912.63;5096085;28;20043;-81
2022/10/27 10:18:31;;;;;;;2.58;1.70;;;;;;;18.08;76.77;101906.28;5086460;28;20089;-83
2022/10/27 10:20:58;;;;;;;;;;;;;;;18.14;78.33;101900.84;5090986;28;20027;-82
2022/10/27 10:23:26;;;;;;;3.65;2.08;;;;;;;18.19;75.30;101896.31;5093019;28;19912;-82
2022/10/27 10:25:55;;;;;;;2.55;1.90;;;;;;;18.25;74.10;101903.13;5092942;28;20028;-83
2022/10/27 10:28:41;;;;;;;3.30;1.80;;;;;;;18.24;76.13;101897.94;5092728;28;20051;-82
2022/10/27 10:31:09;;;;;;;2.10;1.90;;;;;;;18.25;77.39;101899.66;5093054;28;20217;-82
2022/10/27 10:33:38;;;;;;;5.78;1.90;;;;;;;18.23;77.22;101902.34;5093678;28;20027;-82
2022/10/27 10:36:33;;;;;;;3.08;1.80;;;;;;;18.24;77.41;101911.06;5092111;28;20027;-81
2022/10/27 10:38:59;;;;;;;2.50;1.60;;;;;;;18.22;75.42;101898.00;5093039;28;20036;-82
2022/10/27 10:41:26;;;;;;;1.95;1.33;;;;;;;18.26;77.32;101902.22;5092327;28;20034;-82
2022/10/27 10:44:10;;;;;;;1.05;1.05;;;;;;;18.30;74.73;101895.97;5092800;28;20430;-82
2022/10/27 10:46:39;;;;;;;1.80;1.60;;;;;;;18.32;73.70;101888.91;5093011;28;20455;-82
2022/10/27 10:49:12;;;;;;;1.48;1.38;;;;;;;18.35;74.97;101882.69;5091978;28;20024;-82
2022/10/27 10:51:38;;;;;;;4.18;1.50;;;;;;;18.37;74.61;101880.88;5094278;28;20496;-82
2022/10/27 10:54:07;;;;;;;2.83;1.40;;;;;;;18.40;75.05;101879.91;5102091;28;20028;-81
2022/10/27 10:56:35;;;;;;;2.25;1.60;;;;;;;18.47;75.25;101884.94;5112560;28;20498;-82
2022/10/27 10:59:11;;;;;;;3.10;1.50;;;;;;;18.51;75.50;101873.44;5113206;28;20398;-82
2022/10/27 11:01:51;;;;;;;1.92;1.27;;;;;;;18.58;76.66;101876.69;5113153;28;20028;-82
2022/10/27 11:04:20;;;;;;;1.73;1.40;;;;;;;18.60;76.03;101872.25;5114181;28;20370;-82
2022/10/27 11:07:14;;;;;;;2.63;1.45;;;;;;;18.57;73.68;101866.25;5117691;28;20030;-81
2022/10/27 11:09:53;;;;;;;1.70;1.60;;;;;;;18.58;75.08;101868.81;5114110;28;20433;-81
2022/10/27 11:12:41;;;;;;;1.77;1.67;;;;;;;18.63;74.92;101866.06;5117480;28;20469;-82
2022/10/27 11:15:31;;;;;;;1.67;1.52;;;;;;;18.61;74.28;101873.13;5116663;28;20096;-82
2022/10/27 11:18:09;;;;;;;1.48;1.35;;;;;;;18.64;75.18;101878.25;5116407;28;20048;-82
2022/10/27 11:20:36;;;;;;;1.52;1.35;;;;;;;18.65;72.82;101880.84;5116915;28;20019;-81
2022/10/27 11:23:17;;;;;;;1.30;1.20;;;;;;;18.66;74.22;101872.06;5116621;28;20377;-82
2022/10/27 11:25:44;;;;;;;1.73;1.60;;;;;;;18.63;72.63;101866.91;5117021;28;20016;-81
2022/10/27 11:28:53;;;;;;;1.60;1.50;;;;;;;18.64;74.91;101863.38;5116641;28;20615;-82
2022/10/27 11:31:24;;;;;;;1.42;1.20;;;;;;;18.63;75.33;101863.44;5112799;28;20059;-81
2022/10/27 11:34:01;;;;;;;1.90;1.30;;;;;;;18.64;75.94;101863.38;5117122;28;20102;-82